West Biloxi, Mississippi
Current Conditions -  °F | °C
As of 5:18 PM on Friday 19 Dec 2014 (Local Time) from KBIX Reporting Station
Heavy Rain Heavy Rain  
Wind Chill: 45°   Ceiling: 500
Heat Index: 48°   Visibility: 6mi
Dew Point: 48°   Wind: 7mph
Humidity: 100%   Direction: 30°NNE
Pressure: 30.1"   Gusts: NA
Location:  30.4026°N, 88.9677°W
Report Text: KBIX 192318Z AUTO 03006KT 6SM +RA BR BKN005 OVC017 09/09 A3010 RMK AO2 CIG 005V011
Loading
Personal Weather Stations






























Interactive Weather Map New forecast layout! Learn more

10-Day Weather Forecast

Advertisements
Track Severe Weather on mobile